createdAt,value
2023-04-23T00:01:19.328Z,32.47
2023-04-23T00:03:50.974Z,36.17
2023-04-23T00:06:19.036Z,36.27
2023-04-23T00:08:48.840Z,32.57
2023-04-23T00:11:17.215Z,31.73
2023-04-23T00:13:47.003Z,37.03
2023-04-23T00:16:15.916Z,35.10
2023-04-23T00:18:43.758Z,34.93
2023-04-23T00:21:13.083Z,29.43
2023-04-23T00:23:41.392Z,32.80
2023-04-23T00:26:09.133Z,36.17
2023-04-23T00:28:36.952Z,36.97
2023-04-23T00:31:04.761Z,32.80
2023-04-23T00:33:32.509Z,33.27
2023-04-23T00:36:00.224Z,36.27
2023-04-23T00:38:29.402Z,34.60
2023-04-23T00:40:57.248Z,32.60
2023-04-23T00:43:25.148Z,34.57
2023-04-23T00:45:52.868Z,32.27
2023-04-23T00:48:20.727Z,35.90
2023-04-23T00:50:48.497Z,35.67
2023-04-23T00:53:16.431Z,31.60
2023-04-23T00:55:45.615Z,29.53
2023-04-23T00:58:13.494Z,35.20
2023-04-23T01:00:46.562Z,30.03
2023-04-23T01:03:14.698Z,31.70
2023-04-23T01:05:44.016Z,35.47
2023-04-23T01:08:16.288Z,30.73
2023-04-23T01:10:46.428Z,31.13
2023-04-23T01:13:14.652Z,31.90
2023-04-23T01:15:42.702Z,33.13
2023-04-23T01:18:11.062Z,30.67
2023-04-23T01:20:39.187Z,31.00
2023-04-23T01:23:08.700Z,28.33
2023-04-23T01:25:36.753Z,33.60
2023-04-23T01:28:06.568Z,30.03
2023-04-23T01:30:34.873Z,29.13
2023-04-23T01:33:03.379Z,30.90
2023-04-23T01:35:32.268Z,29.67
2023-04-23T01:38:01.673Z,28.90
2023-04-23T01:40:30.812Z,29.77
2023-04-23T01:42:58.585Z,27.50
2023-04-23T01:45:26.413Z,26.03
2023-04-23T01:47:54.807Z,27.60
2023-04-23T01:50:24.473Z,27.93
2023-04-23T01:52:52.158Z,23.10
2023-04-23T01:55:20.559Z,25.27
2023-04-23T01:57:49.714Z,23.43
2023-04-23T02:00:18.247Z,24.13
2023-04-23T02:02:46.360Z,26.43
2023-04-23T02:05:18.425Z,23.60
2023-04-23T02:07:47.614Z,21.63
2023-04-23T02:10:15.658Z,21.73
2023-04-23T02:12:43.879Z,21.87
2023-04-23T02:15:13.888Z,20.43
2023-04-23T02:17:41.845Z,22.20
2023-04-23T02:20:10.674Z,20.93
2023-04-23T02:22:39.568Z,20.83
2023-04-23T02:25:08.365Z,19.47
2023-04-23T02:27:36.404Z,20.90
2023-04-23T02:30:04.611Z,22.67
2023-04-23T02:32:33.772Z,21.80
2023-04-23T02:35:02.085Z,19.87
2023-04-23T02:37:29.861Z,21.77
2023-04-23T02:39:57.635Z,24.30
2023-04-23T02:42:25.393Z,21.47
2023-04-23T02:44:53.191Z,23.80
2023-04-23T02:47:20.985Z,20.63
2023-04-23T02:49:50.211Z,24.10
2023-04-23T02:52:17.987Z,20.60
2023-04-23T02:54:45.942Z,21.03
2023-04-23T02:57:15.595Z,24.30
2023-04-23T02:59:43.840Z,18.30
2023-04-23T03:02:11.662Z,18.83
2023-04-23T03:04:39.953Z,21.17
2023-04-23T03:07:13.264Z,19.30
2023-04-23T03:09:42.390Z,20.70
2023-04-23T03:12:10.291Z,19.40
2023-04-23T03:14:38.100Z,18.13
2023-04-23T03:17:06.432Z,19.60
2023-04-23T03:19:34.341Z,19.27
2023-04-23T03:22:03.796Z,19.17
2023-04-23T03:24:32.879Z,17.90
2023-04-23T03:27:01.090Z,17.93
2023-04-23T03:29:29.240Z,19.23
2023-04-23T03:31:57.363Z,19.97
2023-04-23T03:34:25.194Z,18.83
2023-04-23T03:36:52.844Z,18.10
2023-04-23T03:39:20.748Z,19.83
2023-04-23T03:41:49.861Z,18.20
2023-04-23T03:44:17.572Z,16.97
2023-04-23T03:46:45.410Z,17.77
2023-04-23T03:49:13.145Z,18.33
2023-04-23T03:51:40.868Z,16.93
2023-04-23T03:54:08.806Z,18.07
2023-04-23T03:56:36.579Z,18.00
2023-04-23T03:59:07.757Z,17.67
2023-04-23T04:01:36.292Z,18.63
2023-04-23T04:04:04.547Z,16.37
2023-04-23T04:06:32.570Z,16.57
2023-04-23T04:09:00.333Z,16.40
2023-04-23T04:11:28.102Z,19.43
2023-04-23T04:13:55.907Z,17.40
2023-04-23T04:16:25.029Z,15.83
2023-04-23T04:18:55.108Z,15.83
2023-04-23T04:21:24.029Z,16.43
2023-04-23T04:23:52.021Z,16.40
2023-04-23T04:26:20.403Z,17.30
2023-04-23T04:28:48.129Z,16.70
2023-04-23T04:31:16.608Z,16.70
2023-04-23T04:33:46.402Z,19.43
2023-04-23T04:36:14.684Z,16.93
2023-04-23T04:38:43.900Z,15.37
2023-04-23T04:41:11.786Z,18.27
2023-04-23T04:43:39.595Z,19.10
2023-04-23T04:46:07.748Z,16.47
2023-04-23T04:48:35.634Z,18.23
2023-04-23T04:51:04.976Z,22.47
2023-04-23T04:53:32.762Z,18.13
2023-04-23T04:56:00.510Z,21.27
2023-04-23T04:58:28.388Z,21.97
2023-04-23T05:00:56.681Z,19.23
2023-04-23T05:03:24.574Z,19.10
2023-04-23T05:05:52.548Z,15.73
2023-04-23T05:08:21.935Z,18.53
2023-04-23T05:10:51.074Z,18.03
2023-04-23T05:13:19.071Z,18.13
2023-04-23T05:15:48.027Z,18.47
2023-04-23T05:18:15.826Z,17.20
2023-04-23T05:20:43.895Z,19.63
2023-04-23T05:23:11.769Z,16.93
2023-04-23T05:25:41.173Z,18.03
2023-04-23T05:28:09.663Z,18.53
2023-04-23T05:30:37.479Z,19.93
2023-04-23T05:33:05.563Z,20.80
2023-04-23T05:35:33.430Z,19.53
2023-04-23T05:38:02.761Z,17.17
2023-04-23T05:40:30.527Z,17.13
2023-04-23T05:43:00.548Z,19.90
2023-04-23T05:45:28.431Z,18.03
2023-04-23T05:47:56.219Z,19.13
2023-04-23T05:50:24.127Z,18.80
2023-04-23T05:52:51.852Z,15.60
2023-04-23T05:55:20.933Z,17.53
2023-04-23T05:57:48.650Z,15.80
2023-04-23T06:00:18.406Z,14.87
2023-04-23T06:02:46.236Z,14.67
2023-04-23T06:05:14.449Z,14.13
2023-04-23T06:07:42.291Z,13.50
2023-04-23T06:10:10.899Z,15.77
2023-04-23T06:12:39.920Z,14.27
2023-04-23T06:15:09.422Z,13.03
2023-04-23T06:17:39.364Z,15.23
2023-04-23T06:20:09.030Z,15.27
2023-04-23T06:22:36.822Z,15.53
2023-04-23T06:25:04.880Z,13.57
2023-04-23T06:27:33.742Z,12.33
2023-04-23T06:30:01.478Z,12.97
2023-04-23T06:32:29.268Z,10.87
2023-04-23T06:35:01.884Z,10.73
2023-04-23T06:37:31.766Z,14.83
2023-04-23T06:40:00.202Z,12.33
2023-04-23T06:42:27.948Z,11.23
2023-04-23T06:44:56.526Z,10.73
2023-04-23T06:47:24.271Z,11.07
2023-04-23T06:49:52.267Z,11.10
2023-04-23T06:52:21.404Z,11.17
2023-04-23T06:54:49.268Z,13.27
2023-04-23T06:57:17.022Z,10.63
2023-04-23T06:59:44.689Z,10.83
2023-04-23T07:02:12.420Z,16.00
2023-04-23T07:04:40.964Z,11.17
2023-04-23T07:07:09.173Z,10.47
2023-04-23T07:09:38.375Z,10.27
2023-04-23T07:12:06.623Z,11.07
2023-04-23T07:14:34.372Z,10.87
2023-04-23T07:17:02.128Z,13.60
2023-04-23T07:19:30.019Z,12.13
2023-04-23T07:21:58.011Z,8.80
2023-04-23T07:24:26.582Z,11.23
2023-04-23T07:26:55.855Z,7.77
2023-04-23T07:29:23.850Z,8.43
2023-04-23T07:31:51.700Z,8.80
2023-04-23T07:34:19.513Z,11.03
2023-04-23T07:36:47.291Z,9.80
2023-04-23T07:39:15.183Z,7.53
2023-04-23T07:41:43.007Z,7.70
2023-04-23T07:44:12.139Z,9.67
2023-04-23T07:46:39.958Z,8.27
2023-04-23T07:49:08.494Z,5.23
2023-04-23T07:51:36.247Z,10.80
2023-04-23T07:54:04.335Z,7.80
2023-04-23T07:56:32.532Z,10.80
2023-04-23T07:59:01.441Z,6.53
2023-04-23T08:01:30.769Z,12.33
2023-04-23T08:04:00.721Z,9.30
2023-04-23T08:06:30.158Z,8.43
2023-04-23T08:08:59.684Z,8.23
2023-04-23T08:11:29.591Z,9.93
2023-04-23T08:13:57.276Z,10.90
2023-04-23T08:16:25.225Z,7.50
2023-04-23T08:19:05.025Z,8.30
2023-04-23T08:21:34.309Z,8.43
2023-04-23T08:24:03.062Z,10.77
2023-04-23T08:26:31.470Z,8.70
2023-04-23T08:29:00.660Z,7.17
2023-04-23T08:31:28.732Z,8.80
2023-04-23T08:33:58.427Z,10.03
2023-04-23T08:36:27.587Z,10.00
2023-04-23T08:38:55.472Z,7.40
2023-04-23T08:41:26.492Z,9.10
2023-04-23T08:44:13.264Z,9.63
2023-04-23T08:46:44.340Z,9.17
2023-04-23T08:49:16.768Z,9.20
2023-04-23T08:51:49.981Z,8.97
2023-04-23T08:54:22.868Z,13.70
2023-04-23T08:56:51.987Z,9.77
2023-04-23T08:59:21.239Z,13.07
2023-04-23T09:01:49.218Z,9.00
2023-04-23T09:04:20.436Z,7.70
2023-04-23T09:06:48.357Z,11.10
2023-04-23T09:09:17.991Z,9.20
2023-04-23T09:11:46.127Z,5.30
2023-04-23T09:14:14.308Z,9.43
2023-04-23T09:16:42.763Z,6.13
2023-04-23T09:19:11.104Z,6.93
2023-04-23T09:21:40.558Z,6.70
2023-04-23T09:24:12.107Z,6.43
2023-04-23T09:26:46.724Z,7.57
2023-04-23T09:29:17.469Z,6.57
2023-04-23T09:31:45.872Z,8.43
2023-04-23T09:34:16.358Z,8.87
2023-04-23T09:36:46.291Z,7.63
2023-04-23T09:39:14.583Z,8.60
2023-04-23T09:41:42.690Z,6.37
2023-04-23T09:44:12.363Z,10.47
2023-04-23T09:46:41.612Z,6.90
2023-04-23T09:49:10.663Z,8.97
2023-04-23T09:51:40.488Z,6.87
2023-04-23T09:54:14.824Z,5.30
2023-04-23T09:56:43.234Z,8.17
2023-04-23T09:59:32.586Z,6.07
2023-04-23T10:02:12.654Z,4.37
2023-04-23T10:04:41.951Z,7.17
2023-04-23T10:09:48.339Z,9.27
2023-04-23T10:14:49.377Z,4.30
2023-04-23T10:17:18.139Z,7.30
2023-04-23T10:19:46.601Z,6.00
2023-04-23T10:22:20.159Z,6.00
2023-04-23T10:24:56.034Z,5.80
2023-04-23T10:27:40.299Z,6.83
2023-04-23T10:30:16.187Z,4.20
2023-04-23T10:32:46.138Z,5.63
2023-04-23T10:35:13.980Z,4.33
2023-04-23T10:37:42.680Z,4.87
2023-04-23T10:40:15.244Z,5.50
2023-04-23T10:42:45.064Z,2.23
2023-04-23T10:45:23.927Z,3.87
2023-04-23T10:47:54.248Z,4.33
2023-04-23T10:50:24.918Z,6.27
2023-04-23T10:52:54.487Z,5.63
2023-04-23T10:55:25.190Z,6.13
2023-04-23T10:58:03.709Z,4.20
2023-04-23T11:00:45.499Z,7.50
2023-04-23T11:03:32.023Z,3.57
2023-04-23T11:06:02.968Z,5.63
2023-04-23T11:08:32.589Z,8.30
2023-04-23T11:11:03.329Z,5.40
2023-04-23T11:13:31.276Z,4.37
2023-04-23T11:16:15.728Z,6.07
2023-04-23T11:18:59.320Z,7.30
2023-04-23T11:22:01.979Z,2.63
2023-04-23T11:24:31.417Z,3.83
2023-04-23T11:27:01.212Z,4.57
2023-04-23T11:29:29.633Z,4.83
2023-04-23T11:32:03.165Z,2.37
2023-04-23T11:34:32.072Z,2.07
2023-04-23T11:37:01.611Z,2.83
2023-04-23T11:39:29.391Z,3.27
2023-04-23T11:41:59.275Z,4.67
2023-04-23T11:44:28.499Z,3.93
2023-04-23T11:46:58.359Z,4.23
2023-04-23T11:49:26.397Z,3.67
2023-04-23T11:51:54.319Z,6.17
2023-04-23T11:54:27.530Z,5.17
2023-04-23T11:56:55.794Z,5.73
2023-04-23T11:59:24.168Z,3.17
2023-04-23T12:01:55.401Z,4.50
2023-04-23T12:04:25.135Z,7.33
2023-04-23T12:06:54.765Z,3.87
2023-04-23T12:09:23.593Z,5.93
2023-04-23T12:11:52.155Z,4.37
2023-04-23T12:14:26.913Z,3.77
2023-04-23T12:16:56.574Z,6.57
2023-04-23T12:19:29.398Z,4.13
2023-04-23T12:21:58.947Z,4.30
2023-04-23T12:24:28.853Z,5.27
2023-04-23T12:26:58.509Z,4.93
2023-04-23T12:29:27.245Z,3.97
2023-04-23T12:31:59.875Z,5.60
2023-04-23T12:34:27.718Z,6.13
2023-04-23T12:36:57.342Z,4.77
2023-04-23T12:39:29.286Z,4.00
2023-04-23T12:42:00.099Z,4.10
2023-04-23T12:44:28.223Z,1.63
2023-04-23T12:46:58.773Z,1.63
2023-04-23T12:49:28.070Z,3.87
2023-04-23T12:52:00.983Z,2.10
2023-04-23T12:54:31.204Z,3.27
2023-04-23T12:56:59.120Z,4.17
2023-04-23T12:59:27.878Z,4.47
2023-04-23T13:01:57.248Z,4.77
2023-04-23T13:04:25.073Z,4.03
2023-04-23T13:06:52.891Z,3.57
2023-04-23T13:09:21.812Z,4.53
2023-04-23T13:11:49.965Z,4.73
2023-04-23T13:14:18.439Z,4.17
2023-04-23T13:16:46.351Z,3.67
2023-04-23T13:19:17.272Z,3.57
2023-04-23T13:21:45.728Z,2.97
2023-04-23T13:24:13.490Z,4.03
2023-04-23T13:26:41.292Z,6.43
2023-04-23T13:29:09.007Z,4.03
2023-04-23T13:31:36.814Z,4.93
2023-04-23T13:34:04.598Z,3.73
2023-04-23T13:36:33.690Z,3.97
2023-04-23T13:39:01.475Z,6.90
2023-04-23T13:41:29.238Z,7.50
2023-04-23T13:43:56.956Z,3.63
2023-04-23T13:46:24.782Z,3.03
2023-04-23T13:48:54.303Z,4.13
2023-04-23T13:51:34.181Z,5.43
2023-04-23T13:54:04.964Z,6.10
2023-04-23T13:56:32.945Z,3.60
2023-04-23T13:59:18.741Z,4.73
2023-04-23T14:01:49.844Z,6.77
2023-04-23T14:04:18.975Z,6.07
2023-04-23T14:06:46.908Z,3.47
2023-04-23T14:09:16.026Z,6.13
2023-04-23T14:11:43.838Z,2.37
2023-04-23T14:14:11.873Z,4.77
2023-04-23T14:16:39.767Z,2.43
2023-04-23T14:19:07.505Z,3.57
2023-04-23T14:21:36.190Z,1.97
2023-04-23T14:24:10.239Z,5.60
2023-04-23T14:26:48.644Z,2.47
2023-04-23T14:29:25.574Z,7.03
2023-04-23T14:31:53.614Z,2.23
2023-04-23T14:34:21.332Z,2.27
2023-04-23T14:36:49.527Z,2.80
2023-04-23T14:39:17.604Z,2.07
2023-04-23T14:41:46.666Z,3.47
2023-04-23T14:44:14.481Z,3.20
2023-04-23T14:46:42.236Z,1.77
2023-04-23T14:49:09.938Z,2.40
2023-04-23T14:51:38.014Z,2.03
2023-04-23T14:54:06.262Z,4.20
2023-04-23T14:56:34.026Z,3.20
2023-04-23T14:59:03.178Z,1.80
2023-04-23T15:01:31.193Z,2.40
2023-04-23T15:03:59.033Z,3.80
2023-04-23T15:06:26.809Z,5.00
2023-04-23T15:08:54.593Z,3.67
2023-04-23T15:11:22.448Z,5.03
2023-04-23T15:13:57.943Z,4.17
2023-04-23T15:16:47.621Z,2.87
2023-04-23T15:19:17.809Z,2.23
2023-04-23T15:21:46.347Z,4.53
2023-04-23T15:24:14.264Z,2.20
2023-04-23T15:26:42.191Z,1.73
2023-04-23T15:29:10.590Z,1.77
2023-04-23T15:31:39.841Z,1.37
2023-04-23T15:34:09.178Z,1.13
2023-04-23T15:36:38.222Z,2.27
2023-04-23T15:39:07.254Z,3.33
2023-04-23T15:41:37.495Z,1.67
2023-04-23T15:44:10.922Z,1.63
2023-04-23T15:46:40.597Z,2.20
2023-04-23T15:49:08.567Z,3.90
2023-04-23T15:51:36.646Z,4.63
2023-04-23T15:54:07.956Z,3.33
2023-04-23T15:56:35.910Z,3.33
2023-04-23T15:59:03.794Z,1.77
2023-04-23T16:01:31.531Z,0.87
2023-04-23T16:06:31.824Z,4.23
2023-04-23T16:08:59.659Z,1.47
2023-04-23T16:11:28.417Z,3.83
2023-04-23T16:13:57.077Z,2.97
2023-04-23T16:16:24.975Z,1.43
2023-04-23T16:18:53.295Z,1.60
2023-04-23T16:21:22.708Z,2.70
2023-04-23T16:23:50.467Z,3.77
2023-04-23T16:26:18.159Z,5.30
2023-04-23T16:28:51.993Z,1.40
2023-04-23T16:31:29.259Z,2.83
2023-04-23T16:33:57.479Z,2.07
2023-04-23T16:36:26.681Z,2.70
2023-04-23T16:38:54.418Z,1.63
2023-04-23T16:41:22.146Z,3.00
2023-04-23T16:43:49.933Z,3.83
2023-04-23T16:46:17.925Z,3.80
2023-04-23T16:48:46.261Z,2.30
2023-04-23T16:51:14.061Z,2.30
2023-04-23T16:53:43.382Z,2.27
2023-04-23T16:56:11.197Z,1.17
2023-04-23T16:58:39.109Z,1.57
2023-04-23T17:01:06.880Z,3.17
2023-04-23T17:03:36.535Z,1.93
2023-04-23T17:06:12.682Z,3.60
2023-04-23T17:08:41.199Z,2.13
2023-04-23T17:11:10.361Z,2.60
2023-04-23T17:13:38.329Z,2.60
2023-04-23T17:16:06.166Z,3.00
2023-04-23T17:18:33.881Z,1.83
2023-04-23T17:21:01.807Z,2.00
2023-04-23T17:23:30.021Z,2.27
2023-04-23T17:25:57.807Z,2.67
2023-04-23T17:28:27.002Z,2.10
2023-04-23T17:30:55.916Z,1.67
2023-04-23T17:33:24.486Z,2.27
2023-04-23T17:35:53.233Z,2.33
2023-04-23T17:38:21.295Z,3.13
2023-04-23T17:40:49.436Z,2.30
2023-04-23T17:43:17.516Z,1.90
2023-04-23T17:45:47.583Z,2.50
2023-04-23T17:48:16.265Z,1.73
2023-04-23T17:50:44.171Z,2.60
2023-04-23T17:53:11.950Z,3.97
2023-04-23T17:55:39.685Z,3.27
2023-04-23T17:58:09.065Z,2.10
2023-04-23T18:00:37.602Z,2.53
2023-04-23T18:03:08.696Z,3.60
2023-04-23T18:05:37.301Z,1.77
2023-04-23T18:08:06.950Z,2.97
2023-04-23T18:10:34.876Z,2.77
2023-04-23T18:13:03.051Z,1.63
2023-04-23T18:15:32.294Z,3.93
2023-04-23T18:18:00.668Z,4.40
2023-04-23T18:20:31.927Z,4.97
2023-04-23T18:22:59.757Z,5.07
2023-04-23T18:25:28.365Z,2.70
2023-04-23T18:27:56.049Z,2.90
2023-04-23T18:30:25.467Z,3.60
2023-04-23T18:33:00.801Z,1.57
2023-04-23T18:35:29.983Z,3.37
2023-04-23T18:38:03.116Z,2.33
2023-04-23T18:40:30.906Z,3.53
2023-04-23T18:42:58.605Z,3.37
2023-04-23T18:45:26.499Z,2.73
2023-04-23T18:47:59.374Z,2.13
2023-04-23T18:50:37.955Z,3.73
2023-04-23T18:53:06.077Z,2.77
2023-04-23T18:55:33.819Z,5.47
2023-04-23T18:58:02.119Z,3.17
2023-04-23T19:00:29.865Z,4.37
2023-04-23T19:02:57.721Z,3.33
2023-04-23T19:05:25.855Z,2.27
2023-04-23T19:07:56.138Z,2.50
2023-04-23T19:10:23.926Z,3.40
2023-04-23T19:12:51.732Z,3.50
2023-04-23T19:15:19.622Z,3.87
2023-04-23T19:17:47.985Z,2.70
2023-04-23T19:20:15.804Z,2.17
2023-04-23T19:22:43.638Z,2.57
2023-04-23T19:25:12.770Z,3.10
2023-04-23T19:27:40.578Z,3.03
2023-04-23T19:30:10.441Z,3.37
2023-04-23T19:32:38.321Z,4.23
2023-04-23T19:35:07.034Z,3.33
2023-04-23T19:37:36.148Z,3.60
2023-04-23T19:40:04.886Z,2.47
2023-04-23T19:42:34.075Z,3.97
2023-04-23T19:45:01.969Z,3.13
2023-04-23T19:47:29.667Z,3.23
2023-04-23T19:49:57.425Z,4.73
2023-04-23T19:52:27.565Z,3.37
2023-04-23T19:54:55.414Z,3.67
2023-04-23T19:57:23.112Z,3.90
2023-04-23T19:59:52.508Z,2.53
2023-04-23T20:02:20.475Z,3.43
2023-04-23T20:04:48.317Z,4.27
2023-04-23T20:07:16.945Z,3.20
2023-04-23T20:09:44.925Z,3.97
2023-04-23T20:12:14.133Z,3.37
2023-04-23T20:14:42.524Z,2.90
2023-04-23T20:17:12.100Z,2.63
2023-04-23T20:19:39.961Z,2.63
2023-04-23T20:22:07.930Z,3.57
2023-04-23T20:24:38.138Z,2.97
2023-04-23T20:27:06.987Z,4.10
2023-04-23T20:29:34.756Z,3.07
2023-04-23T20:32:02.577Z,1.70
2023-04-23T20:34:31.989Z,2.07
2023-04-23T20:37:00.274Z,3.13
2023-04-23T20:39:28.020Z,2.57
2023-04-23T20:41:57.811Z,2.93
2023-04-23T20:44:25.875Z,3.47
2023-04-23T20:46:53.659Z,2.93
2023-04-23T20:49:21.501Z,3.03
2023-04-23T20:51:50.622Z,1.60
2023-04-23T20:54:18.526Z,2.13
2023-04-23T20:56:46.336Z,2.47
2023-04-23T20:59:14.483Z,3.63
2023-04-23T21:01:42.300Z,2.53
2023-04-23T21:04:10.610Z,2.80
2023-04-23T21:06:38.608Z,2.40
2023-04-23T21:09:07.686Z,1.07
2023-04-23T21:11:35.725Z,1.53
2023-04-23T21:14:03.460Z,2.10
2023-04-23T21:16:31.244Z,2.53
2023-04-23T21:18:59.051Z,2.13
2023-04-23T21:21:29.558Z,2.70
2023-04-23T21:23:57.366Z,1.67
2023-04-23T21:26:26.892Z,2.00
2023-04-23T21:28:54.752Z,2.33
2023-04-23T21:31:30.685Z,2.43
2023-04-23T21:33:58.455Z,1.30
2023-04-23T21:36:26.416Z,1.70
2023-04-23T21:38:54.162Z,1.50
2023-04-23T21:41:21.905Z,1.60
2023-04-23T21:43:51.029Z,0.93
2023-04-23T21:46:18.843Z,0.57
2023-04-23T21:48:50.294Z,1.07
2023-04-23T21:51:18.099Z,4.20
2023-04-23T21:53:45.837Z,3.20
2023-04-23T21:56:14.762Z,3.40
2023-04-23T21:58:42.574Z,2.13
2023-04-23T22:01:11.969Z,3.00
2023-04-23T22:03:42.419Z,2.20
2023-04-23T22:06:10.762Z,2.20
2023-04-23T22:08:40.269Z,1.93
2023-04-23T22:11:09.471Z,0.90
2023-04-23T22:13:37.485Z,3.40
2023-04-23T22:16:13.354Z,1.90
2023-04-23T22:18:45.820Z,0.60
2023-04-23T22:21:14.721Z,0.47
2023-04-23T22:23:42.432Z,1.63
2023-04-23T22:26:10.549Z,1.37
2023-04-23T22:28:38.432Z,0.73
2023-04-23T22:31:06.206Z,1.30
2023-04-23T22:33:35.044Z,0.70
2023-04-23T22:36:05.273Z,1.60
2023-04-23T22:38:33.048Z,2.03
2023-04-23T22:41:00.784Z,1.83
2023-04-23T22:43:28.530Z,1.10
2023-04-23T22:45:56.368Z,0.93
2023-04-23T22:48:24.124Z,1.50
2023-04-23T22:50:52.584Z,2.33
2023-04-23T22:53:21.848Z,1.53
2023-04-23T22:55:49.949Z,1.70
2023-04-23T22:58:17.745Z,2.20
2023-04-23T23:00:45.455Z,1.03
2023-04-23T23:03:13.292Z,1.10
2023-04-23T23:05:41.094Z,2.00
2023-04-23T23:08:08.866Z,2.47
2023-04-23T23:10:38.012Z,2.77
2023-04-23T23:13:05.873Z,0.90
2023-04-23T23:15:33.609Z,1.80
2023-04-23T23:18:01.371Z,0.40
2023-04-23T23:20:29.455Z,0.40
2023-04-23T23:22:57.299Z,1.23
2023-04-23T23:25:25.066Z,2.73
2023-04-23T23:27:54.402Z,2.10
2023-04-23T23:30:22.166Z,0.90
2023-04-23T23:32:49.984Z,1.57
2023-04-23T23:35:17.945Z,2.00
2023-04-23T23:37:46.598Z,0.90
2023-04-23T23:40:14.349Z,1.73
2023-04-23T23:42:42.084Z,1.80
2023-04-23T23:45:12.114Z,1.10
2023-04-23T23:47:40.012Z,1.40
2023-04-23T23:50:08.497Z,1.23
2023-04-23T23:52:36.271Z,1.97
2023-04-23T23:55:04.131Z,2.80
2023-04-23T23:57:32.081Z,2.30
2023-04-23T23:59:59.843Z,1.63
